sensor_id;sensor_type;location;lat;lon;timestamp;P1;durP1;ratioP1;P2;durP2;ratioP2
56242;SDS011;42155;53.096;23.226;2023-04-12T00:01:39;18.50;;;10.65;;
56242;SDS011;42155;53.096;23.226;2023-04-12T00:03:39;21.38;;;11.80;;
56242;SDS011;42155;53.096;23.226;2023-04-12T00:05:39;19.80;;;10.90;;
56242;SDS011;42155;53.096;23.226;2023-04-12T00:07:40;19.83;;;10.90;;
56242;SDS011;42155;53.096;23.226;2023-04-12T00:09:40;21.33;;;10.85;;
56242;SDS011;42155;53.096;23.226;2023-04-12T00:11:40;21.52;;;11.27;;
56242;SDS011;42155;53.096;23.226;2023-04-12T00:13:41;19.77;;;10.05;;
56242;SDS011;42155;53.096;23.226;2023-04-12T00:15:41;18.52;;;11.18;;
56242;SDS011;42155;53.096;23.226;2023-04-12T00:17:41;18.95;;;10.63;;
56242;SDS011;42155;53.096;23.226;2023-04-12T00:19:43;19.60;;;10.38;;
56242;SDS011;42155;53.096;23.226;2023-04-12T00:21:44;23.52;;;10.85;;
56242;SDS011;42155;53.096;23.226;2023-04-12T00:23:45;16.75;;;10.38;;
56242;SDS011;42155;53.096;23.226;2023-04-12T00:25:45;23.42;;;10.90;;
56242;SDS011;42155;53.096;23.226;2023-04-12T00:27:46;18.40;;;10.65;;
56242;SDS011;42155;53.096;23.226;2023-04-12T00:29:46;21.85;;;11.20;;
56242;SDS011;42155;53.096;23.226;2023-04-12T00:31:46;26.88;;;12.38;;
56242;SDS011;42155;53.096;23.226;2023-04-12T00:33:47;18.45;;;10.98;;
56242;SDS011;42155;53.096;23.226;2023-04-12T00:35:47;18.75;;;11.27;;
56242;SDS011;42155;53.096;23.226;2023-04-12T00:37:48;20.45;;;10.88;;
56242;SDS011;42155;53.096;23.226;2023-04-12T00:39:49;21.02;;;11.38;;
56242;SDS011;42155;53.096;23.226;2023-04-12T00:41:49;19.23;;;11.50;;
56242;SDS011;42155;53.096;23.226;2023-04-12T00:43:49;18.67;;;11.25;;
56242;SDS011;42155;53.096;23.226;2023-04-12T00:45:50;18.85;;;10.30;;
56242;SDS011;42155;53.096;23.226;2023-04-12T00:47:50;22.38;;;12.18;;
56242;SDS011;42155;53.096;23.226;2023-04-12T00:49:50;20.25;;;11.57;;
56242;SDS011;42155;53.096;23.226;2023-04-12T00:51:51;23.77;;;11.35;;
56242;SDS011;42155;53.096;23.226;2023-04-12T00:53:54;21.48;;;11.63;;
56242;SDS011;42155;53.096;23.226;2023-04-12T00:55:55;15.57;;;9.77;;
56242;SDS011;42155;53.096;23.226;2023-04-12T00:57:57;23.45;;;11.98;;
56242;SDS011;42155;53.096;23.226;2023-04-12T00:59:57;22.35;;;10.80;;
56242;SDS011;42155;53.096;23.226;2023-04-12T01:01:58;19.55;;;11.00;;
56242;SDS011;42155;53.096;23.226;2023-04-12T01:03:58;16.38;;;10.05;;
56242;SDS011;42155;53.096;23.226;2023-04-12T01:11:02;18.63;;;10.82;;
56242;SDS011;42155;53.096;23.226;2023-04-12T01:13:33;16.80;;;9.98;;
56242;SDS011;42155;53.096;23.226;2023-04-12T01:15:40;17.50;;;11.00;;
56242;SDS011;42155;53.096;23.226;2023-04-12T01:18:03;21.35;;;10.68;;
56242;SDS011;42155;53.096;23.226;2023-04-12T01:20:08;17.60;;;11.00;;
56242;SDS011;42155;53.096;23.226;2023-04-12T01:24:28;20.10;;;11.27;;
56242;SDS011;42155;53.096;23.226;2023-04-12T01:26:46;22.00;;;11.77;;
56242;SDS011;42155;53.096;23.226;2023-04-12T01:28:49;21.02;;;10.85;;
56242;SDS011;42155;53.096;23.226;2023-04-12T01:30:52;19.80;;;11.57;;
56242;SDS011;42155;53.096;23.226;2023-04-12T01:32:54;18.30;;;11.43;;
56242;SDS011;42155;53.096;23.226;2023-04-12T01:34:56;22.85;;;13.50;;
56242;SDS011;42155;53.096;23.226;2023-04-12T01:37:00;20.00;;;11.25;;
56242;SDS011;42155;53.096;23.226;2023-04-12T01:39:01;19.40;;;12.38;;
56242;SDS011;42155;53.096;23.226;2023-04-12T01:41:03;20.50;;;11.52;;
56242;SDS011;42155;53.096;23.226;2023-04-12T01:43:05;21.20;;;12.68;;
56242;SDS011;42155;53.096;23.226;2023-04-12T01:45:06;22.15;;;12.40;;
56242;SDS011;42155;53.096;23.226;2023-04-12T01:47:07;23.08;;;13.25;;
56242;SDS011;42155;53.096;23.226;2023-04-12T01:49:08;26.58;;;13.45;;
56242;SDS011;42155;53.096;23.226;2023-04-12T01:51:11;20.55;;;12.57;;
56242;SDS011;42155;53.096;23.226;2023-04-12T01:55:46;22.70;;;13.00;;
56242;SDS011;42155;53.096;23.226;2023-04-12T01:57:48;23.58;;;14.13;;
56242;SDS011;42155;53.096;23.226;2023-04-12T01:59:49;22.90;;;14.40;;
56242;SDS011;42155;53.096;23.226;2023-04-12T02:01:52;28.13;;;14.55;;
56242;SDS011;42155;53.096;23.226;2023-04-12T02:03:53;22.23;;;14.20;;
56242;SDS011;42155;53.096;23.226;2023-04-12T02:05:55;24.08;;;13.95;;
56242;SDS011;42155;53.096;23.226;2023-04-12T02:07:57;22.92;;;13.35;;
56242;SDS011;42155;53.096;23.226;2023-04-12T02:09:58;19.85;;;13.25;;
56242;SDS011;42155;53.096;23.226;2023-04-12T02:11:59;25.38;;;14.40;;
56242;SDS011;42155;53.096;23.226;2023-04-12T02:13:59;24.23;;;14.15;;
56242;SDS011;42155;53.096;23.226;2023-04-12T02:15:59;21.83;;;14.30;;
56242;SDS011;42155;53.096;23.226;2023-04-12T02:18:00;23.75;;;14.52;;
56242;SDS011;42155;53.096;23.226;2023-04-12T02:20:00;24.98;;;16.25;;
56242;SDS011;42155;53.096;23.226;2023-04-12T02:22:01;28.63;;;16.30;;
56242;SDS011;42155;53.096;23.226;2023-04-12T02:24:01;28.40;;;17.17;;
56242;SDS011;42155;53.096;23.226;2023-04-12T02:26:02;21.65;;;15.80;;
56242;SDS011;42155;53.096;23.226;2023-04-12T02:28:02;25.83;;;17.00;;
56242;SDS011;42155;53.096;23.226;2023-04-12T02:30:03;26.08;;;17.55;;
56242;SDS011;42155;53.096;23.226;2023-04-12T02:32:03;26.15;;;16.52;;
56242;SDS011;42155;53.096;23.226;2023-04-12T02:34:04;27.83;;;18.05;;
56242;SDS011;42155;53.096;23.226;2023-04-12T02:36:07;26.67;;;17.63;;
56242;SDS011;42155;53.096;23.226;2023-04-12T02:38:08;25.92;;;17.95;;
56242;SDS011;42155;53.096;23.226;2023-04-12T02:40:09;26.15;;;17.77;;
56242;SDS011;42155;53.096;23.226;2023-04-12T02:42:09;27.77;;;17.15;;
56242;SDS011;42155;53.096;23.226;2023-04-12T02:44:10;30.13;;;18.15;;
56242;SDS011;42155;53.096;23.226;2023-04-12T02:46:13;26.27;;;16.75;;
56242;SDS011;42155;53.096;23.226;2023-04-12T02:48:14;24.55;;;17.58;;
56242;SDS011;42155;53.096;23.226;2023-04-12T02:50:15;25.73;;;16.83;;
56242;SDS011;42155;53.096;23.226;2023-04-12T02:52:15;26.77;;;16.98;;
56242;SDS011;42155;53.096;23.226;2023-04-12T02:54:16;26.38;;;17.30;;
56242;SDS011;42155;53.096;23.226;2023-04-12T02:56:16;25.73;;;17.13;;
56242;SDS011;42155;53.096;23.226;2023-04-12T02:58:16;25.30;;;16.83;;
56242;SDS011;42155;53.096;23.226;2023-04-12T03:00:16;26.50;;;16.42;;
56242;SDS011;42155;53.096;23.226;2023-04-12T03:02:17;26.45;;;15.75;;
56242;SDS011;42155;53.096;23.226;2023-04-12T03:04:18;27.30;;;17.02;;
56242;SDS011;42155;53.096;23.226;2023-04-12T03:06:18;29.65;;;17.80;;
56242;SDS011;42155;53.096;23.226;2023-04-12T03:08:19;31.08;;;20.15;;
56242;SDS011;42155;53.096;23.226;2023-04-12T03:10:20;31.77;;;19.75;;
56242;SDS011;42155;53.096;23.226;2023-04-12T03:12:20;33.97;;;19.92;;
56242;SDS011;42155;53.096;23.226;2023-04-12T03:14:21;30.83;;;19.05;;
56242;SDS011;42155;53.096;23.226;2023-04-12T03:16:23;30.20;;;19.00;;
56242;SDS011;42155;53.096;23.226;2023-04-12T03:18:24;33.40;;;20.73;;
56242;SDS011;42155;53.096;23.226;2023-04-12T03:20:25;31.65;;;20.83;;
56242;SDS011;42155;53.096;23.226;2023-04-12T03:22:25;30.73;;;19.42;;
56242;SDS011;42155;53.096;23.226;2023-04-12T03:24:26;29.92;;;20.05;;
56242;SDS011;42155;53.096;23.226;2023-04-12T03:26:26;28.98;;;17.52;;
56242;SDS011;42155;53.096;23.226;2023-04-12T03:28:27;26.00;;;17.10;;
56242;SDS011;42155;53.096;23.226;2023-04-12T03:30:27;23.73;;;16.40;;
56242;SDS011;42155;53.096;23.226;2023-04-12T03:32:28;24.75;;;15.80;;
56242;SDS011;42155;53.096;23.226;2023-04-12T03:34:28;25.90;;;15.77;;
56242;SDS011;42155;53.096;23.226;2023-04-12T03:36:28;23.77;;;14.98;;
56242;SDS011;42155;53.096;23.226;2023-04-12T03:38:29;24.33;;;16.25;;
56242;SDS011;42155;53.096;23.226;2023-04-12T03:40:29;25.52;;;17.02;;
56242;SDS011;42155;53.096;23.226;2023-04-12T03:42:29;30.70;;;18.27;;
56242;SDS011;42155;53.096;23.226;2023-04-12T03:44:30;30.08;;;18.15;;
56242;SDS011;42155;53.096;23.226;2023-04-12T03:46:30;30.10;;;18.20;;
56242;SDS011;42155;53.096;23.226;2023-04-12T03:48:30;33.78;;;18.45;;
56242;SDS011;42155;53.096;23.226;2023-04-12T03:50:31;35.63;;;18.25;;
56242;SDS011;42155;53.096;23.226;2023-04-12T03:52:32;29.27;;;17.85;;
56242;SDS011;42155;53.096;23.226;2023-04-12T03:54:32;34.97;;;19.23;;
56242;SDS011;42155;53.096;23.226;2023-04-12T03:56:33;29.85;;;16.70;;
56242;SDS011;42155;53.096;23.226;2023-04-12T03:58:33;26.52;;;16.75;;
56242;SDS011;42155;53.096;23.226;2023-04-12T04:00:34;25.08;;;15.23;;
56242;SDS011;42155;53.096;23.226;2023-04-12T04:02:35;25.42;;;14.77;;
56242;SDS011;42155;53.096;23.226;2023-04-12T04:04:35;22.42;;;13.85;;
56242;SDS011;42155;53.096;23.226;2023-04-12T04:06:35;22.05;;;13.35;;
56242;SDS011;42155;53.096;23.226;2023-04-12T04:08:36;21.65;;;13.02;;
56242;SDS011;42155;53.096;23.226;2023-04-12T04:10:36;21.15;;;12.77;;
56242;SDS011;42155;53.096;23.226;2023-04-12T04:12:37;19.38;;;12.27;;
56242;SDS011;42155;53.096;23.226;2023-04-12T04:14:37;19.58;;;11.63;;
56242;SDS011;42155;53.096;23.226;2023-04-12T04:16:37;19.85;;;11.90;;
56242;SDS011;42155;53.096;23.226;2023-04-12T04:18:38;19.88;;;12.05;;
56242;SDS011;42155;53.096;23.226;2023-04-12T04:20:38;22.52;;;12.75;;
56242;SDS011;42155;53.096;23.226;2023-04-12T04:22:39;22.50;;;12.48;;
56242;SDS011;42155;53.096;23.226;2023-04-12T04:24:39;25.23;;;12.80;;
56242;SDS011;42155;53.096;23.226;2023-04-12T04:26:40;19.30;;;11.82;;
56242;SDS011;42155;53.096;23.226;2023-04-12T04:28:40;24.90;;;11.55;;
56242;SDS011;42155;53.096;23.226;2023-04-12T04:30:42;20.08;;;11.80;;
56242;SDS011;42155;53.096;23.226;2023-04-12T04:32:42;21.17;;;11.45;;
56242;SDS011;42155;53.096;23.226;2023-04-12T04:34:42;20.65;;;11.52;;
56242;SDS011;42155;53.096;23.226;2023-04-12T04:36:43;17.42;;;10.90;;
56242;SDS011;42155;53.096;23.226;2023-04-12T04:38:43;19.35;;;11.57;;
56242;SDS011;42155;53.096;23.226;2023-04-12T04:40:43;18.58;;;10.85;;
56242;SDS011;42155;53.096;23.226;2023-04-12T04:42:44;24.85;;;11.48;;
56242;SDS011;42155;53.096;23.226;2023-04-12T04:44:44;20.35;;;11.95;;
56242;SDS011;42155;53.096;23.226;2023-04-12T04:46:44;17.25;;;10.70;;
56242;SDS011;42155;53.096;23.226;2023-04-12T04:48:45;14.90;;;9.90;;
56242;SDS011;42155;53.096;23.226;2023-04-12T04:50:49;16.98;;;10.30;;
56242;SDS011;42155;53.096;23.226;2023-04-12T04:52:49;19.20;;;10.82;;
56242;SDS011;42155;53.096;23.226;2023-04-12T04:54:50;16.95;;;10.73;;
56242;SDS011;42155;53.096;23.226;2023-04-12T04:56:50;14.35;;;10.30;;
56242;SDS011;42155;53.096;23.226;2023-04-12T04:58:50;20.05;;;11.00;;
56242;SDS011;42155;53.096;23.226;2023-04-12T05:00:51;17.20;;;11.27;;
56242;SDS011;42155;53.096;23.226;2023-04-12T05:02:54;19.45;;;11.80;;
56242;SDS011;42155;53.096;23.226;2023-04-12T05:04:55;18.65;;;11.38;;
56242;SDS011;42155;53.096;23.226;2023-04-12T05:06:55;26.60;;;13.25;;
56242;SDS011;42155;53.096;23.226;2023-04-12T05:08:55;28.05;;;14.32;;
56242;SDS011;42155;53.096;23.226;2023-04-12T05:10:56;29.20;;;15.45;;
56242;SDS011;42155;53.096;23.226;2023-04-12T05:12:56;27.25;;;14.57;;
56242;SDS011;42155;53.096;23.226;2023-04-12T05:14:57;31.48;;;16.25;;
56242;SDS011;42155;53.096;23.226;2023-04-12T05:16:57;32.05;;;16.08;;
56242;SDS011;42155;53.096;23.226;2023-04-12T05:18:57;28.05;;;15.00;;
56242;SDS011;42155;53.096;23.226;2023-04-12T05:21:07;16.83;;;9.55;;
56242;SDS011;42155;53.096;23.226;2023-04-12T05:23:07;13.80;;;8.40;;
56242;SDS011;42155;53.096;23.226;2023-04-12T05:25:08;12.57;;;8.23;;
56242;SDS011;42155;53.096;23.226;2023-04-12T05:27:08;17.08;;;8.00;;
56242;SDS011;42155;53.096;23.226;2023-04-12T05:29:08;11.95;;;7.72;;
56242;SDS011;42155;53.096;23.226;2023-04-12T05:31:09;13.98;;;7.95;;
56242;SDS011;42155;53.096;23.226;2023-04-12T05:33:09;13.82;;;8.05;;
56242;SDS011;42155;53.096;23.226;2023-04-12T05:35:10;11.88;;;7.78;;
56242;SDS011;42155;53.096;23.226;2023-04-12T05:37:10;13.73;;;8.85;;
56242;SDS011;42155;53.096;23.226;2023-04-12T05:39:10;13.75;;;8.60;;
56242;SDS011;42155;53.096;23.226;2023-04-12T05:41:11;12.63;;;7.57;;
56242;SDS011;42155;53.096;23.226;2023-04-12T05:43:11;13.95;;;7.63;;
56242;SDS011;42155;53.096;23.226;2023-04-12T05:45:12;10.88;;;7.45;;
56242;SDS011;42155;53.096;23.226;2023-04-12T05:47:12;12.45;;;7.32;;
56242;SDS011;42155;53.096;23.226;2023-04-12T05:49:13;11.10;;;6.97;;
56242;SDS011;42155;53.096;23.226;2023-04-12T05:51:13;13.88;;;7.93;;
56242;SDS011;42155;53.096;23.226;2023-04-12T05:53:13;12.52;;;7.30;;
56242;SDS011;42155;53.096;23.226;2023-04-12T05:55:14;14.23;;;7.45;;
56242;SDS011;42155;53.096;23.226;2023-04-12T05:57:14;12.88;;;7.40;;
56242;SDS011;42155;53.096;23.226;2023-04-12T05:59:15;11.88;;;6.90;;
56242;SDS011;42155;53.096;23.226;2023-04-12T06:01:15;19.38;;;7.35;;
56242;SDS011;42155;53.096;23.226;2023-04-12T06:03:15;11.60;;;7.45;;
56242;SDS011;42155;53.096;23.226;2023-04-12T06:05:16;11.90;;;7.43;;
56242;SDS011;42155;53.096;23.226;2023-04-12T06:07:16;14.00;;;8.15;;
56242;SDS011;42155;53.096;23.226;2023-04-12T06:09:17;14.98;;;8.98;;
56242;SDS011;42155;53.096;23.226;2023-04-12T06:11:17;12.10;;;7.07;;
56242;SDS011;42155;53.096;23.226;2023-04-12T06:13:18;13.75;;;7.35;;
56242;SDS011;42155;53.096;23.226;2023-04-12T06:15:18;10.30;;;7.28;;
56242;SDS011;42155;53.096;23.226;2023-04-12T06:17:18;16.88;;;9.85;;
56242;SDS011;42155;53.096;23.226;2023-04-12T06:19:19;19.10;;;9.93;;
56242;SDS011;42155;53.096;23.226;2023-04-12T06:21:19;11.10;;;7.07;;
56242;SDS011;42155;53.096;23.226;2023-04-12T06:23:19;12.00;;;7.45;;
56242;SDS011;42155;53.096;23.226;2023-04-12T06:25:20;13.90;;;6.93;;
56242;SDS011;42155;53.096;23.226;2023-04-12T06:27:20;11.52;;;7.10;;
56242;SDS011;42155;53.096;23.226;2023-04-12T06:29:20;13.02;;;7.32;;
56242;SDS011;42155;53.096;23.226;2023-04-12T06:31:21;10.85;;;7.03;;
56242;SDS011;42155;53.096;23.226;2023-04-12T06:33:21;15.18;;;8.13;;
56242;SDS011;42155;53.096;23.226;2023-04-12T06:35:21;14.93;;;7.40;;
56242;SDS011;42155;53.096;23.226;2023-04-12T06:37:22;14.18;;;9.15;;
56242;SDS011;42155;53.096;23.226;2023-04-12T06:39:22;17.23;;;10.75;;
56242;SDS011;42155;53.096;23.226;2023-04-12T06:41:22;13.35;;;8.80;;
56242;SDS011;42155;53.096;23.226;2023-04-12T06:43:24;11.63;;;7.82;;
56242;SDS011;42155;53.096;23.226;2023-04-12T06:45:24;14.93;;;9.30;;
56242;SDS011;42155;53.096;23.226;2023-04-12T06:47:24;34.05;;;19.33;;
56242;SDS011;42155;53.096;23.226;2023-04-12T06:49:25;23.42;;;13.48;;
56242;SDS011;42155;53.096;23.226;2023-04-12T06:51:25;22.95;;;11.98;;
56242;SDS011;42155;53.096;23.226;2023-04-12T06:53:26;19.23;;;10.25;;
56242;SDS011;42155;53.096;23.226;2023-04-12T06:55:26;13.43;;;8.25;;
56242;SDS011;42155;53.096;23.226;2023-04-12T06:57:26;12.48;;;7.03;;
56242;SDS011;42155;53.096;23.226;2023-04-12T06:59:27;11.70;;;7.30;;
56242;SDS011;42155;53.096;23.226;2023-04-12T07:01:27;10.95;;;7.45;;
56242;SDS011;42155;53.096;23.226;2023-04-12T07:03:28;16.67;;;7.50;;
56242;SDS011;42155;53.096;23.226;2023-04-12T07:05:29;16.83;;;7.60;;
56242;SDS011;42155;53.096;23.226;2023-04-12T07:07:29;15.27;;;10.57;;
56242;SDS011;42155;53.096;23.226;2023-04-12T07:09:30;9.75;;;7.43;;
56242;SDS011;42155;53.096;23.226;2023-04-12T07:11:30;10.07;;;7.15;;
56242;SDS011;42155;53.096;23.226;2023-04-12T07:13:30;14.40;;;7.38;;
56242;SDS011;42155;53.096;23.226;2023-04-12T07:15:31;12.38;;;7.53;;
56242;SDS011;42155;53.096;23.226;2023-04-12T07:17:31;11.52;;;6.70;;
56242;SDS011;42155;53.096;23.226;2023-04-12T07:19:31;9.60;;;6.45;;
56242;SDS011;42155;53.096;23.226;2023-04-12T07:21:32;13.60;;;7.07;;
56242;SDS011;42155;53.096;23.226;2023-04-12T07:23:32;9.02;;;6.30;;
56242;SDS011;42155;53.096;23.226;2023-04-12T07:25:35;12.73;;;6.65;;
56242;SDS011;42155;53.096;23.226;2023-04-12T07:27:36;9.23;;;6.32;;
56242;SDS011;42155;53.096;23.226;2023-04-12T07:29:36;10.52;;;6.55;;
56242;SDS011;42155;53.096;23.226;2023-04-12T07:31:37;14.43;;;7.40;;
56242;SDS011;42155;53.096;23.226;2023-04-12T07:33:37;11.13;;;6.95;;
56242;SDS011;42155;53.096;23.226;2023-04-12T07:35:37;11.82;;;7.63;;
56242;SDS011;42155;53.096;23.226;2023-04-12T07:37:38;12.23;;;6.78;;
56242;SDS011;42155;53.096;23.226;2023-04-12T07:39:38;11.38;;;6.60;;
56242;SDS011;42155;53.096;23.226;2023-04-12T07:41:39;11.20;;;6.85;;
56242;SDS011;42155;53.096;23.226;2023-04-12T07:43:39;10.15;;;6.10;;
56242;SDS011;42155;53.096;23.226;2023-04-12T07:45:39;10.27;;;6.38;;
56242;SDS011;42155;53.096;23.226;2023-04-12T07:47:40;12.32;;;6.35;;
56242;SDS011;42155;53.096;23.226;2023-04-12T07:49:40;14.35;;;6.30;;
56242;SDS011;42155;53.096;23.226;2023-04-12T07:51:40;14.27;;;5.93;;
56242;SDS011;42155;53.096;23.226;2023-04-12T07:53:41;9.98;;;5.57;;
56242;SDS011;42155;53.096;23.226;2023-04-12T07:55:41;14.52;;;7.00;;
56242;SDS011;42155;53.096;23.226;2023-04-12T07:57:41;12.95;;;6.22;;
56242;SDS011;42155;53.096;23.226;2023-04-12T07:59:42;11.45;;;6.57;;
56242;SDS011;42155;53.096;23.226;2023-04-12T08:01:42;11.25;;;7.75;;
56242;SDS011;42155;53.096;23.226;2023-04-12T08:03:42;16.80;;;7.15;;
56242;SDS011;42155;53.096;23.226;2023-04-12T08:05:43;11.75;;;6.95;;
56242;SDS011;42155;53.096;23.226;2023-04-12T08:07:44;14.80;;;7.57;;
56242;SDS011;42155;53.096;23.226;2023-04-12T08:09:45;14.15;;;7.43;;
56242;SDS011;42155;53.096;23.226;2023-04-12T08:11:46;14.70;;;7.65;;
56242;SDS011;42155;53.096;23.226;2023-04-12T08:13:46;15.48;;;9.00;;
56242;SDS011;42155;53.096;23.226;2023-04-12T08:15:46;11.65;;;7.70;;
56242;SDS011;42155;53.096;23.226;2023-04-12T08:17:47;10.88;;;6.18;;
56242;SDS011;42155;53.096;23.226;2023-04-12T08:19:47;16.85;;;6.97;;
56242;SDS011;42155;53.096;23.226;2023-04-12T08:21:47;11.10;;;6.28;;
56242;SDS011;42155;53.096;23.226;2023-04-12T08:23:48;8.98;;;5.88;;
56242;SDS011;42155;53.096;23.226;2023-04-12T08:25:48;11.65;;;6.10;;
56242;SDS011;42155;53.096;23.226;2023-04-12T08:27:49;9.27;;;5.57;;
56242;SDS011;42155;53.096;23.226;2023-04-12T08:29:49;12.45;;;5.30;;
56242;SDS011;42155;53.096;23.226;2023-04-12T08:31:50;9.55;;;5.63;;
56242;SDS011;42155;53.096;23.226;2023-04-12T08:33:50;9.73;;;6.10;;
56242;SDS011;42155;53.096;23.226;2023-04-12T08:35:50;12.77;;;6.13;;
56242;SDS011;42155;53.096;23.226;2023-04-12T08:37:51;9.77;;;6.05;;
56242;SDS011;42155;53.096;23.226;2023-04-12T08:39:51;8.15;;;5.30;;
56242;SDS011;42155;53.096;23.226;2023-04-12T08:41:52;10.73;;;6.03;;
56242;SDS011;42155;53.096;23.226;2023-04-12T08:43:53;11.38;;;5.88;;
56242;SDS011;42155;53.096;23.226;2023-04-12T08:45:54;9.68;;;4.90;;
56242;SDS011;42155;53.096;23.226;2023-04-12T08:47:57;9.88;;;5.43;;
56242;SDS011;42155;53.096;23.226;2023-04-12T08:49:59;10.00;;;5.80;;
56242;SDS011;42155;53.096;23.226;2023-04-12T08:52:04;12.13;;;6.20;;
56242;SDS011;42155;53.096;23.226;2023-04-12T08:54:06;10.38;;;5.90;;
56242;SDS011;42155;53.096;23.226;2023-04-12T08:56:09;10.60;;;6.00;;
56242;SDS011;42155;53.096;23.226;2023-04-12T08:58:13;15.93;;;6.03;;
56242;SDS011;42155;53.096;23.226;2023-04-12T09:00:14;9.90;;;5.57;;
56242;SDS011;42155;53.096;23.226;2023-04-12T09:02:16;14.80;;;6.03;;
56242;SDS011;42155;53.096;23.226;2023-04-12T09:04:17;8.88;;;4.88;;
56242;SDS011;42155;53.096;23.226;2023-04-12T09:06:17;11.52;;;5.60;;
56242;SDS011;42155;53.096;23.226;2023-04-12T09:08:17;9.27;;;5.32;;
56242;SDS011;42155;53.096;23.226;2023-04-12T09:10:31;14.00;;;5.97;;
56242;SDS011;42155;53.096;23.226;2023-04-12T09:12:33;9.52;;;5.78;;
56242;SDS011;42155;53.096;23.226;2023-04-12T09:14:33;9.60;;;5.15;;
56242;SDS011;42155;53.096;23.226;2023-04-12T09:16:34;8.48;;;5.32;;
56242;SDS011;42155;53.096;23.226;2023-04-12T09:18:46;8.90;;;5.45;;
56242;SDS011;42155;53.096;23.226;2023-04-12T09:20:47;10.13;;;5.13;;
56242;SDS011;42155;53.096;23.226;2023-04-12T09:22:47;8.75;;;5.40;;
56242;SDS011;42155;53.096;23.226;2023-04-12T09:24:48;15.05;;;5.85;;
56242;SDS011;42155;53.096;23.226;2023-04-12T09:27:03;8.00;;;4.88;;
56242;SDS011;42155;53.096;23.226;2023-04-12T09:29:04;13.57;;;5.72;;
56242;SDS011;42155;53.096;23.226;2023-04-12T09:31:18;10.95;;;5.47;;
56242;SDS011;42155;53.096;23.226;2023-04-12T09:33:23;10.70;;;5.63;;
56242;SDS011;42155;53.096;23.226;2023-04-12T09:35:34;7.38;;;4.95;;
56242;SDS011;42155;53.096;23.226;2023-04-12T09:37:34;8.25;;;5.25;;
56242;SDS011;42155;53.096;23.226;2023-04-12T09:39:34;7.63;;;4.82;;
56242;SDS011;42155;53.096;23.226;2023-04-12T09:41:35;8.50;;;5.50;;
56242;SDS011;42155;53.096;23.226;2023-04-12T09:43:36;9.90;;;4.75;;
56242;SDS011;42155;53.096;23.226;2023-04-12T09:45:37;9.48;;;4.57;;
56242;SDS011;42155;53.096;23.226;2023-04-12T09:47:38;10.20;;;5.25;;
56242;SDS011;42155;53.096;23.226;2023-04-12T09:49:40;6.63;;;5.15;;
56242;SDS011;42155;53.096;23.226;2023-04-12T09:51:41;7.47;;;4.50;;
56242;SDS011;42155;53.096;23.226;2023-04-12T09:53:42;6.95;;;4.70;;
56242;SDS011;42155;53.096;23.226;2023-04-12T09:55:45;9.02;;;4.78;;
56242;SDS011;42155;53.096;23.226;2023-04-12T09:57:49;11.45;;;4.78;;
56242;SDS011;42155;53.096;23.226;2023-04-12T09:59:50;9.88;;;4.80;;
56242;SDS011;42155;53.096;23.226;2023-04-12T10:01:52;7.25;;;4.50;;
56242;SDS011;42155;53.096;23.226;2023-04-12T10:03:53;7.57;;;4.85;;
56242;SDS011;42155;53.096;23.226;2023-04-12T10:05:54;8.95;;;4.90;;
56242;SDS011;42155;53.096;23.226;2023-04-12T10:07:55;14.77;;;5.20;;
56242;SDS011;42155;53.096;23.226;2023-04-12T10:09:56;13.25;;;5.22;;
56242;SDS011;42155;53.096;23.226;2023-04-12T10:11:58;7.32;;;4.40;;
56242;SDS011;42155;53.096;23.226;2023-04-12T10:14:01;9.63;;;5.00;;
56242;SDS011;42155;53.096;23.226;2023-04-12T10:16:03;7.40;;;5.10;;
56242;SDS011;42155;53.096;23.226;2023-04-12T10:18:04;8.43;;;4.70;;
56242;SDS011;42155;53.096;23.226;2023-04-12T10:20:05;9.45;;;4.90;;
56242;SDS011;42155;53.096;23.226;2023-04-12T10:22:06;9.32;;;4.80;;
56242;SDS011;42155;53.096;23.226;2023-04-12T10:24:07;20.17;;;5.72;;
56242;SDS011;42155;53.096;23.226;2023-04-12T10:26:08;13.60;;;5.22;;
56242;SDS011;42155;53.096;23.226;2023-04-12T10:28:12;13.00;;;6.20;;
56242;SDS011;42155;53.096;23.226;2023-04-12T10:30:21;7.53;;;4.57;;
56242;SDS011;42155;53.096;23.226;2023-04-12T10:32:23;10.75;;;4.90;;
56242;SDS011;42155;53.096;23.226;2023-04-12T10:34:27;11.05;;;4.38;;
56242;SDS011;42155;53.096;23.226;2023-04-12T10:39:07;12.20;;;4.88;;
56242;SDS011;42155;53.096;23.226;2023-04-12T10:41:18;7.70;;;4.20;;
56242;SDS011;42155;53.096;23.226;2023-04-12T10:52:23;9.75;;;4.70;;
56242;SDS011;42155;53.096;23.226;2023-04-12T11:01:27;8.43;;;4.55;;
56242;SDS011;42155;53.096;23.226;2023-04-12T11:03:08;6.57;;;4.55;;
56242;SDS011;42155;53.096;23.226;2023-04-12T11:05:09;10.30;;;4.38;;
56242;SDS011;42155;53.096;23.226;2023-04-12T11:07:10;9.23;;;5.15;;
56242;SDS011;42155;53.096;23.226;2023-04-12T11:09:17;8.18;;;5.05;;
56242;SDS011;42155;53.096;23.226;2023-04-12T11:11:19;16.80;;;5.57;;
56242;SDS011;42155;53.096;23.226;2023-04-12T11:13:19;14.45;;;5.00;;
56242;SDS011;42155;53.096;23.226;2023-04-12T11:15:23;6.30;;;4.55;;
56242;SDS011;42155;53.096;23.226;2023-04-12T11:17:25;8.02;;;4.70;;
56242;SDS011;42155;53.096;23.226;2023-04-12T11:19:25;12.13;;;4.68;;
56242;SDS011;42155;53.096;23.226;2023-04-12T11:21:26;6.10;;;4.25;;
56242;SDS011;42155;53.096;23.226;2023-04-12T11:23:27;10.43;;;5.00;;
56242;SDS011;42155;53.096;23.226;2023-04-12T11:25:28;11.13;;;4.57;;
56242;SDS011;42155;53.096;23.226;2023-04-12T11:27:28;8.82;;;4.53;;
56242;SDS011;42155;53.096;23.226;2023-04-12T11:29:29;9.88;;;4.53;;
56242;SDS011;42155;53.096;23.226;2023-04-12T11:31:29;11.75;;;4.80;;
56242;SDS011;42155;53.096;23.226;2023-04-12T11:33:34;10.20;;;4.88;;
56242;SDS011;42155;53.096;23.226;2023-04-12T11:35:35;13.38;;;4.70;;
56242;SDS011;42155;53.096;23.226;2023-04-12T11:37:36;8.50;;;4.60;;
56242;SDS011;42155;53.096;23.226;2023-04-12T11:39:38;10.88;;;4.38;;
56242;SDS011;42155;53.096;23.226;2023-04-12T11:41:43;9.00;;;4.30;;
56242;SDS011;42155;53.096;23.226;2023-04-12T11:43:45;9.85;;;4.70;;
56242;SDS011;42155;53.096;23.226;2023-04-12T11:45:46;9.13;;;4.60;;
56242;SDS011;42155;53.096;23.226;2023-04-12T11:47:47;11.43;;;4.63;;
56242;SDS011;42155;53.096;23.226;2023-04-12T11:52:01;12.90;;;5.00;;
56242;SDS011;42155;53.096;23.226;2023-04-12T11:54:02;9.13;;;4.45;;
56242;SDS011;42155;53.096;23.226;2023-04-12T11:56:03;12.57;;;5.75;;
56242;SDS011;42155;53.096;23.226;2023-04-12T11:58:03;8.25;;;4.78;;
56242;SDS011;42155;53.096;23.226;2023-04-12T12:00:04;14.98;;;5.50;;
56242;SDS011;42155;53.096;23.226;2023-04-12T12:02:06;8.38;;;4.57;;
56242;SDS011;42155;53.096;23.226;2023-04-12T12:04:07;10.45;;;5.43;;
56242;SDS011;42155;53.096;23.226;2023-04-12T12:06:08;7.53;;;4.43;;
56242;SDS011;42155;53.096;23.226;2023-04-12T12:08:09;15.20;;;4.85;;
56242;SDS011;42155;53.096;23.226;2023-04-12T12:10:09;6.50;;;4.38;;
56242;SDS011;42155;53.096;23.226;2023-04-12T12:12:10;8.90;;;4.78;;
56242;SDS011;42155;53.096;23.226;2023-04-12T12:14:11;10.27;;;5.03;;
56242;SDS011;42155;53.096;23.226;2023-04-12T12:16:17;8.95;;;5.07;;
56242;SDS011;42155;53.096;23.226;2023-04-12T12:18:26;9.00;;;4.40;;